sensor_id;sensor_type;location;lat;lon;timestamp;P1;durP1;ratioP1;P2;durP2;ratioP2
54787;SDS011;59598;48.112;16.280;2023-07-29T00:02:02;1.30;;;1.15;;
54787;SDS011;59598;48.112;16.280;2023-07-29T00:04:34;2.25;;;1.60;;
54787;SDS011;59598;48.112;16.280;2023-07-29T00:07:11;2.03;;;1.52;;
54787;SDS011;59598;48.112;16.280;2023-07-29T00:09:45;1.45;;;1.33;;
54787;SDS011;59598;48.112;16.280;2023-07-29T00:12:16;1.38;;;1.27;;
54787;SDS011;59598;48.112;16.280;2023-07-29T00:14:51;2.10;;;1.60;;
54787;SDS011;59598;48.112;16.280;2023-07-29T00:17:26;2.05;;;1.63;;
54787;SDS011;59598;48.112;16.280;2023-07-29T00:20:05;3.05;;;1.33;;
54787;SDS011;59598;48.112;16.280;2023-07-29T00:22:39;1.40;;;1.30;;
54787;SDS011;59598;48.112;16.280;2023-07-29T00:25:14;2.03;;;1.50;;
54787;SDS011;59598;48.112;16.280;2023-07-29T00:27:45;1.65;;;1.55;;
54787;SDS011;59598;48.112;16.280;2023-07-29T00:30:17;1.52;;;1.40;;
54787;SDS011;59598;48.112;16.280;2023-07-29T00:32:51;1.63;;;1.52;;
54787;SDS011;59598;48.112;16.280;2023-07-29T00:35:25;2.13;;;1.40;;
54787;SDS011;59598;48.112;16.280;2023-07-29T00:37:57;1.63;;;1.38;;
54787;SDS011;59598;48.112;16.280;2023-07-29T00:40:28;2.08;;;1.52;;
54787;SDS011;59598;48.112;16.280;2023-07-29T00:43:01;1.35;;;1.25;;
54787;SDS011;59598;48.112;16.280;2023-07-29T00:45:32;1.65;;;1.45;;
54787;SDS011;59598;48.112;16.280;2023-07-29T00:48:04;1.77;;;1.60;;
54787;SDS011;59598;48.112;16.280;2023-07-29T00:50:36;1.55;;;1.25;;
54787;SDS011;59598;48.112;16.280;2023-07-29T00:53:08;1.80;;;1.33;;
54787;SDS011;59598;48.112;16.280;2023-07-29T00:55:42;1.70;;;1.40;;
54787;SDS011;59598;48.112;16.280;2023-07-29T00:58:14;1.92;;;1.40;;
54787;SDS011;59598;48.112;16.280;2023-07-29T01:03:35;1.73;;;1.52;;
54787;SDS011;59598;48.112;16.280;2023-07-29T01:08:52;1.40;;;1.30;;
54787;SDS011;59598;48.112;16.280;2023-07-29T01:14:17;2.22;;;1.30;;
54787;SDS011;59598;48.112;16.280;2023-07-29T01:17:11;1.58;;;1.40;;
54787;SDS011;59598;48.112;16.280;2023-07-29T01:22:38;1.83;;;1.27;;
54787;SDS011;59598;48.112;16.280;2023-07-29T01:25:10;1.77;;;1.40;;
54787;SDS011;59598;48.112;16.280;2023-07-29T01:27:44;2.83;;;1.80;;
54787;SDS011;59598;48.112;16.280;2023-07-29T01:30:17;2.28;;;1.77;;
54787;SDS011;59598;48.112;16.280;2023-07-29T01:32:52;1.42;;;1.30;;
54787;SDS011;59598;48.112;16.280;2023-07-29T01:35:33;2.17;;;1.88;;
54787;SDS011;59598;48.112;16.280;2023-07-29T01:38:29;1.73;;;1.58;;
54787;SDS011;59598;48.112;16.280;2023-07-29T01:41:08;1.90;;;1.67;;
54787;SDS011;59598;48.112;16.280;2023-07-29T01:43:40;1.70;;;1.40;;
54787;SDS011;59598;48.112;16.280;2023-07-29T01:48:48;2.97;;;1.73;;
54787;SDS011;59598;48.112;16.280;2023-07-29T01:51:25;2.85;;;1.73;;
54787;SDS011;59598;48.112;16.280;2023-07-29T01:53:56;2.80;;;1.65;;
54787;SDS011;59598;48.112;16.280;2023-07-29T01:56:30;1.77;;;1.50;;
54787;SDS011;59598;48.112;16.280;2023-07-29T01:59:02;2.70;;;2.47;;
54787;SDS011;59598;48.112;16.280;2023-07-29T02:01:36;1.92;;;1.52;;
54787;SDS011;59598;48.112;16.280;2023-07-29T02:04:08;1.67;;;1.57;;
54787;SDS011;59598;48.112;16.280;2023-07-29T02:06:39;2.13;;;1.60;;
54787;SDS011;59598;48.112;16.280;2023-07-29T02:09:10;1.92;;;1.73;;
54787;SDS011;59598;48.112;16.280;2023-07-29T02:11:41;1.90;;;1.70;;
54787;SDS011;59598;48.112;16.280;2023-07-29T02:14:13;1.90;;;1.65;;
54787;SDS011;59598;48.112;16.280;2023-07-29T02:16:44;1.98;;;1.50;;
54787;SDS011;59598;48.112;16.280;2023-07-29T02:19:16;1.95;;;1.55;;
54787;SDS011;59598;48.112;16.280;2023-07-29T02:21:50;2.03;;;1.55;;
54787;SDS011;59598;48.112;16.280;2023-07-29T02:24:21;1.60;;;1.50;;
54787;SDS011;59598;48.112;16.280;2023-07-29T02:26:54;1.70;;;1.60;;
54787;SDS011;59598;48.112;16.280;2023-07-29T02:29:25;1.60;;;1.50;;
54787;SDS011;59598;48.112;16.280;2023-07-29T02:32:01;1.88;;;1.38;;
54787;SDS011;59598;48.112;16.280;2023-07-29T02:34:32;1.77;;;1.60;;
54787;SDS011;59598;48.112;16.280;2023-07-29T02:37:03;1.67;;;1.30;;
54787;SDS011;59598;48.112;16.280;2023-07-29T02:39:35;1.40;;;1.27;;
54787;SDS011;59598;48.112;16.280;2023-07-29T02:44:43;1.20;;;1.00;;
54787;SDS011;59598;48.112;16.280;2023-07-29T02:47:14;1.10;;;1.00;;
54787;SDS011;59598;48.112;16.280;2023-07-29T02:49:53;0.93;;;0.93;;
54787;SDS011;59598;48.112;16.280;2023-07-29T02:52:24;0.85;;;0.85;;
54787;SDS011;59598;48.112;16.280;2023-07-29T02:57:29;1.10;;;1.00;;
54787;SDS011;59598;48.112;16.280;2023-07-29T03:00:03;1.17;;;1.07;;
54787;SDS011;59598;48.112;16.280;2023-07-29T03:02:38;1.38;;;0.90;;
54787;SDS011;59598;48.112;16.280;2023-07-29T03:05:12;1.02;;;0.90;;
54787;SDS011;59598;48.112;16.280;2023-07-29T03:07:46;1.92;;;0.98;;
54787;SDS011;59598;48.112;16.280;2023-07-29T03:10:22;1.10;;;1.00;;
54787;SDS011;59598;48.112;16.280;2023-07-29T03:12:54;1.23;;;0.70;;
54787;SDS011;59598;48.112;16.280;2023-07-29T03:15:28;3.15;;;1.23;;
54787;SDS011;59598;48.112;16.280;2023-07-29T03:18:01;2.10;;;1.42;;
54787;SDS011;59598;48.112;16.280;2023-07-29T03:20:35;1.00;;;0.90;;
54787;SDS011;59598;48.112;16.280;2023-07-29T03:23:09;1.48;;;0.90;;
54787;SDS011;59598;48.112;16.280;2023-07-29T03:25:43;1.42;;;1.30;;
54787;SDS011;59598;48.112;16.280;2023-07-29T03:28:17;2.20;;;1.17;;
54787;SDS011;59598;48.112;16.280;2023-07-29T03:30:50;0.77;;;0.77;;
54787;SDS011;59598;48.112;16.280;2023-07-29T03:33:22;2.72;;;1.13;;
54787;SDS011;59598;48.112;16.280;2023-07-29T03:35:54;1.60;;;1.23;;
54787;SDS011;59598;48.112;16.280;2023-07-29T03:38:31;1.13;;;1.02;;
54787;SDS011;59598;48.112;16.280;2023-07-29T03:41:10;1.42;;;1.20;;
54787;SDS011;59598;48.112;16.280;2023-07-29T03:46:15;1.50;;;1.40;;
54787;SDS011;59598;48.112;16.280;2023-07-29T03:48:52;1.33;;;1.10;;
54787;SDS011;59598;48.112;16.280;2023-07-29T03:51:23;1.85;;;1.08;;
54787;SDS011;59598;48.112;16.280;2023-07-29T03:53:55;1.83;;;1.00;;
54787;SDS011;59598;48.112;16.280;2023-07-29T03:56:29;2.22;;;1.20;;
54787;SDS011;59598;48.112;16.280;2023-07-29T03:59:06;1.27;;;1.05;;
54787;SDS011;59598;48.112;16.280;2023-07-29T04:01:38;1.35;;;1.15;;
54787;SDS011;59598;48.112;16.280;2023-07-29T04:04:11;1.53;;;1.17;;
54787;SDS011;59598;48.112;16.280;2023-07-29T04:06:45;1.38;;;1.20;;
54787;SDS011;59598;48.112;16.280;2023-07-29T04:09:16;1.20;;;1.10;;
54787;SDS011;59598;48.112;16.280;2023-07-29T04:11:50;1.60;;;1.23;;
54787;SDS011;59598;48.112;16.280;2023-07-29T04:14:23;1.45;;;1.20;;
54787;SDS011;59598;48.112;16.280;2023-07-29T04:16:54;1.42;;;1.25;;
54787;SDS011;59598;48.112;16.280;2023-07-29T04:19:29;1.60;;;1.33;;
54787;SDS011;59598;48.112;16.280;2023-07-29T04:22:01;1.92;;;1.10;;
54787;SDS011;59598;48.112;16.280;2023-07-29T04:24:32;1.17;;;1.08;;
54787;SDS011;59598;48.112;16.280;2023-07-29T04:27:10;1.85;;;1.27;;
54787;SDS011;59598;48.112;16.280;2023-07-29T04:29:46;1.83;;;1.20;;
54787;SDS011;59598;48.112;16.280;2023-07-29T04:32:21;2.03;;;1.40;;
54787;SDS011;59598;48.112;16.280;2023-07-29T04:34:52;1.58;;;1.02;;
54787;SDS011;59598;48.112;16.280;2023-07-29T04:37:24;1.00;;;0.90;;
54787;SDS011;59598;48.112;16.280;2023-07-29T04:39:58;1.20;;;1.10;;
54787;SDS011;59598;48.112;16.280;2023-07-29T04:42:32;1.20;;;1.10;;
54787;SDS011;59598;48.112;16.280;2023-07-29T04:45:07;1.33;;;1.23;;
54787;SDS011;59598;48.112;16.280;2023-07-29T04:47:39;2.50;;;2.20;;
54787;SDS011;59598;48.112;16.280;2023-07-29T04:50:12;1.40;;;1.30;;
54787;SDS011;59598;48.112;16.280;2023-07-29T04:52:44;1.50;;;1.20;;
54787;SDS011;59598;48.112;16.280;2023-07-29T04:55:17;0.95;;;0.93;;
54787;SDS011;59598;48.112;16.280;2023-07-29T04:57:49;1.67;;;1.30;;
54787;SDS011;59598;48.112;16.280;2023-07-29T05:00:20;2.15;;;1.45;;
54787;SDS011;59598;48.112;16.280;2023-07-29T05:02:54;1.20;;;1.10;;
54787;SDS011;59598;48.112;16.280;2023-07-29T05:05:26;1.52;;;1.27;;
54787;SDS011;59598;48.112;16.280;2023-07-29T05:07:57;1.63;;;1.33;;
54787;SDS011;59598;48.112;16.280;2023-07-29T05:10:29;1.10;;;1.00;;
54787;SDS011;59598;48.112;16.280;2023-07-29T05:13:00;2.10;;;1.10;;
54787;SDS011;59598;48.112;16.280;2023-07-29T05:15:33;1.25;;;1.02;;
54787;SDS011;59598;48.112;16.280;2023-07-29T05:18:06;0.80;;;0.80;;
54787;SDS011;59598;48.112;16.280;2023-07-29T05:20:37;1.20;;;1.10;;
54787;SDS011;59598;48.112;16.280;2023-07-29T05:23:11;1.67;;;1.20;;
54787;SDS011;59598;48.112;16.280;2023-07-29T05:25:45;1.50;;;1.10;;
54787;SDS011;59598;48.112;16.280;2023-07-29T05:28:19;1.85;;;1.00;;
54787;SDS011;59598;48.112;16.280;2023-07-29T05:30:50;1.55;;;1.27;;
54787;SDS011;59598;48.112;16.280;2023-07-29T05:33:21;2.55;;;1.15;;
54787;SDS011;59598;48.112;16.280;2023-07-29T05:35:53;1.40;;;1.30;;
54787;SDS011;59598;48.112;16.280;2023-07-29T05:38:27;1.73;;;1.23;;
54787;SDS011;59598;48.112;16.280;2023-07-29T05:41:01;1.20;;;1.10;;
54787;SDS011;59598;48.112;16.280;2023-07-29T05:43:37;1.42;;;0.90;;
54787;SDS011;59598;48.112;16.280;2023-07-29T05:46:08;1.33;;;1.10;;
54787;SDS011;59598;48.112;16.280;2023-07-29T05:48:42;1.75;;;1.08;;
54787;SDS011;59598;48.112;16.280;2023-07-29T05:51:13;1.63;;;1.20;;
54787;SDS011;59598;48.112;16.280;2023-07-29T05:53:46;0.88;;;0.88;;
54787;SDS011;59598;48.112;16.280;2023-07-29T05:56:17;1.10;;;0.85;;
54787;SDS011;59598;48.112;16.280;2023-07-29T05:58:49;0.93;;;0.90;;
54787;SDS011;59598;48.112;16.280;2023-07-29T06:01:23;1.67;;;1.20;;
54787;SDS011;59598;48.112;16.280;2023-07-29T06:03:57;1.08;;;0.98;;
54787;SDS011;59598;48.112;16.280;2023-07-29T06:06:28;0.90;;;0.90;;
54787;SDS011;59598;48.112;16.280;2023-07-29T06:08:59;0.60;;;0.60;;
54787;SDS011;59598;48.112;16.280;2023-07-29T06:11:33;1.08;;;0.85;;
54787;SDS011;59598;48.112;16.280;2023-07-29T06:14:06;0.75;;;0.70;;
54787;SDS011;59598;48.112;16.280;2023-07-29T06:16:38;3.08;;;1.00;;
54787;SDS011;59598;48.112;16.280;2023-07-29T06:19:10;0.68;;;0.68;;
54787;SDS011;59598;48.112;16.280;2023-07-29T06:21:41;1.17;;;0.98;;
54787;SDS011;59598;48.112;16.280;2023-07-29T06:24:13;1.00;;;1.00;;
54787;SDS011;59598;48.112;16.280;2023-07-29T06:26:44;1.40;;;0.98;;
54787;SDS011;59598;48.112;16.280;2023-07-29T06:29:15;0.85;;;0.85;;
54787;SDS011;59598;48.112;16.280;2023-07-29T06:31:47;1.33;;;1.05;;
54787;SDS011;59598;48.112;16.280;2023-07-29T06:34:24;1.15;;;1.05;;
54787;SDS011;59598;48.112;16.280;2023-07-29T06:36:55;0.90;;;0.90;;
54787;SDS011;59598;48.112;16.280;2023-07-29T06:39:27;1.48;;;1.15;;
54787;SDS011;59598;48.112;16.280;2023-07-29T06:42:01;1.98;;;1.70;;
54787;SDS011;59598;48.112;16.280;2023-07-29T06:44:33;1.13;;;1.10;;
54787;SDS011;59598;48.112;16.280;2023-07-29T06:47:04;1.17;;;1.08;;
54787;SDS011;59598;48.112;16.280;2023-07-29T06:49:38;0.95;;;0.75;;
54787;SDS011;59598;48.112;16.280;2023-07-29T06:52:09;1.00;;;0.83;;
54787;SDS011;59598;48.112;16.280;2023-07-29T06:54:43;1.48;;;0.90;;
54787;SDS011;59598;48.112;16.280;2023-07-29T06:57:16;1.20;;;1.08;;
54787;SDS011;59598;48.112;16.280;2023-07-29T06:59:48;1.23;;;1.10;;
54787;SDS011;59598;48.112;16.280;2023-07-29T07:02:19;0.88;;;0.82;;
54787;SDS011;59598;48.112;16.280;2023-07-29T07:04:50;2.33;;;1.67;;
54787;SDS011;59598;48.112;16.280;2023-07-29T07:07:24;1.23;;;1.13;;
54787;SDS011;59598;48.112;16.280;2023-07-29T07:09:57;1.33;;;1.00;;
54787;SDS011;59598;48.112;16.280;2023-07-29T07:12:31;0.93;;;0.82;;
54787;SDS011;59598;48.112;16.280;2023-07-29T07:15:06;1.30;;;1.02;;
54787;SDS011;59598;48.112;16.280;2023-07-29T07:17:42;1.02;;;0.73;;
54787;SDS011;59598;48.112;16.280;2023-07-29T07:20:18;1.27;;;0.82;;
54787;SDS011;59598;48.112;16.280;2023-07-29T07:22:50;1.30;;;0.80;;
54787;SDS011;59598;48.112;16.280;2023-07-29T07:25:21;0.80;;;0.73;;
54787;SDS011;59598;48.112;16.280;2023-07-29T07:27:52;0.93;;;0.85;;
54787;SDS011;59598;48.112;16.280;2023-07-29T07:30:24;0.70;;;0.70;;
54787;SDS011;59598;48.112;16.280;2023-07-29T07:32:55;1.00;;;0.90;;
54787;SDS011;59598;48.112;16.280;2023-07-29T07:35:27;1.10;;;0.80;;
54787;SDS011;59598;48.112;16.280;2023-07-29T07:38:00;0.95;;;0.85;;
54787;SDS011;59598;48.112;16.280;2023-07-29T07:40:34;1.00;;;0.90;;
54787;SDS011;59598;48.112;16.280;2023-07-29T07:43:06;0.93;;;0.90;;
54787;SDS011;59598;48.112;16.280;2023-07-29T07:45:40;0.93;;;0.77;;
54787;SDS011;59598;48.112;16.280;2023-07-29T07:48:11;1.10;;;0.80;;
54787;SDS011;59598;48.112;16.280;2023-07-29T07:50:44;1.25;;;1.00;;
54787;SDS011;59598;48.112;16.280;2023-07-29T07:53:16;0.82;;;0.80;;
54787;SDS011;59598;48.112;16.280;2023-07-29T07:55:49;0.80;;;0.80;;
54787;SDS011;59598;48.112;16.280;2023-07-29T07:58:25;0.60;;;0.60;;
54787;SDS011;59598;48.112;16.280;2023-07-29T08:01:01;1.05;;;0.70;;
54787;SDS011;59598;48.112;16.280;2023-07-29T08:03:35;1.20;;;1.00;;
54787;SDS011;59598;48.112;16.280;2023-07-29T08:06:12;0.77;;;0.75;;
54787;SDS011;59598;48.112;16.280;2023-07-29T08:08:43;1.00;;;0.90;;
54787;SDS011;59598;48.112;16.280;2023-07-29T08:11:14;0.70;;;0.70;;
54787;SDS011;59598;48.112;16.280;2023-07-29T08:13:48;0.80;;;0.80;;
54787;SDS011;59598;48.112;16.280;2023-07-29T08:16:25;0.95;;;0.82;;
54787;SDS011;59598;48.112;16.280;2023-07-29T08:18:59;0.68;;;0.68;;
54787;SDS011;59598;48.112;16.280;2023-07-29T08:21:33;0.70;;;0.60;;
54787;SDS011;59598;48.112;16.280;2023-07-29T08:24:09;1.08;;;0.85;;
54787;SDS011;59598;48.112;16.280;2023-07-29T08:26:49;0.70;;;0.70;;
54787;SDS011;59598;48.112;16.280;2023-07-29T08:29:22;0.77;;;0.63;;
54787;SDS011;59598;48.112;16.280;2023-07-29T08:32:01;0.60;;;0.60;;
54787;SDS011;59598;48.112;16.280;2023-07-29T08:34:35;0.60;;;0.60;;
54787;SDS011;59598;48.112;16.280;2023-07-29T08:37:08;0.70;;;0.55;;
54787;SDS011;59598;48.112;16.280;2023-07-29T08:39:40;2.17;;;0.85;;
54787;SDS011;59598;48.112;16.280;2023-07-29T08:42:11;0.77;;;0.77;;
54787;SDS011;59598;48.112;16.280;2023-07-29T08:44:43;1.30;;;0.90;;
54787;SDS011;59598;48.112;16.280;2023-07-29T08:47:16;0.70;;;0.60;;
54787;SDS011;59598;48.112;16.280;2023-07-29T08:49:51;0.95;;;0.73;;
54787;SDS011;59598;48.112;16.280;2023-07-29T08:52:24;1.67;;;0.80;;
54787;SDS011;59598;48.112;16.280;2023-07-29T08:54:59;0.70;;;0.70;;
54787;SDS011;59598;48.112;16.280;2023-07-29T08:57:30;0.98;;;0.73;;
54787;SDS011;59598;48.112;16.280;2023-07-29T09:00:07;0.63;;;0.60;;
54787;SDS011;59598;48.112;16.280;2023-07-29T09:02:42;0.70;;;0.70;;
54787;SDS011;59598;48.112;16.280;2023-07-29T09:05:14;0.80;;;0.77;;
54787;SDS011;59598;48.112;16.280;2023-07-29T09:07:45;0.68;;;0.68;;
54787;SDS011;59598;48.112;16.280;2023-07-29T09:10:21;0.70;;;0.70;;
54787;SDS011;59598;48.112;16.280;2023-07-29T09:12:54;0.93;;;0.90;;
54787;SDS011;59598;48.112;16.280;2023-07-29T09:15:29;0.93;;;0.80;;
54787;SDS011;59598;48.112;16.280;2023-07-29T09:18:11;0.93;;;0.80;;
54787;SDS011;59598;48.112;16.280;2023-07-29T09:20:48;1.42;;;0.90;;
54787;SDS011;59598;48.112;16.280;2023-07-29T09:23:25;1.00;;;0.65;;
54787;SDS011;59598;48.112;16.280;2023-07-29T09:26:12;0.70;;;0.70;;
54787;SDS011;59598;48.112;16.280;2023-07-29T09:28:43;1.00;;;0.63;;
54787;SDS011;59598;48.112;16.280;2023-07-29T09:31:18;1.10;;;0.80;;
54787;SDS011;59598;48.112;16.280;2023-07-29T09:34:00;1.17;;;1.08;;
54787;SDS011;59598;48.112;16.280;2023-07-29T09:36:36;0.75;;;0.73;;
54787;SDS011;59598;48.112;16.280;2023-07-29T09:39:13;0.77;;;0.70;;
54787;SDS011;59598;48.112;16.280;2023-07-29T09:41:48;1.10;;;0.85;;
54787;SDS011;59598;48.112;16.280;2023-07-29T09:44:24;0.75;;;0.60;;
54787;SDS011;59598;48.112;16.280;2023-07-29T09:46:57;0.73;;;0.70;;
54787;SDS011;59598;48.112;16.280;2023-07-29T09:49:29;1.45;;;0.80;;
54787;SDS011;59598;48.112;16.280;2023-07-29T09:52:10;0.85;;;0.85;;
54787;SDS011;59598;48.112;16.280;2023-07-29T09:54:42;0.63;;;0.63;;
54787;SDS011;59598;48.112;16.280;2023-07-29T09:57:19;0.85;;;0.70;;
54787;SDS011;59598;48.112;16.280;2023-07-29T09:59:56;0.77;;;0.77;;
54787;SDS011;59598;48.112;16.280;2023-07-29T10:02:29;0.82;;;0.50;;
54787;SDS011;59598;48.112;16.280;2023-07-29T10:05:01;0.70;;;0.70;;
54787;SDS011;59598;48.112;16.280;2023-07-29T10:07:39;0.70;;;0.70;;
54787;SDS011;59598;48.112;16.280;2023-07-29T10:10:10;0.75;;;0.70;;
54787;SDS011;59598;48.112;16.280;2023-07-29T10:12:46;0.73;;;0.60;;
54787;SDS011;59598;48.112;16.280;2023-07-29T10:15:17;0.82;;;0.70;;
54787;SDS011;59598;48.112;16.280;2023-07-29T10:17:49;0.63;;;0.63;;
54787;SDS011;59598;48.112;16.280;2023-07-29T10:20:24;1.08;;;0.70;;
54787;SDS011;59598;48.112;16.280;2023-07-29T10:23:01;1.25;;;0.80;;
54787;SDS011;59598;48.112;16.280;2023-07-29T10:25:38;0.70;;;0.70;;
54787;SDS011;59598;48.112;16.280;2023-07-29T10:28:17;1.15;;;0.80;;
54787;SDS011;59598;48.112;16.280;2023-07-29T10:30:56;0.70;;;0.70;;
54787;SDS011;59598;48.112;16.280;2023-07-29T10:33:31;0.60;;;0.60;;
54787;SDS011;59598;48.112;16.280;2023-07-29T10:36:06;0.85;;;0.80;;
54787;SDS011;59598;48.112;16.280;2023-07-29T10:38:39;1.30;;;0.93;;
54787;SDS011;59598;48.112;16.280;2023-07-29T10:41:14;0.70;;;0.70;;
54787;SDS011;59598;48.112;16.280;2023-07-29T10:43:46;1.58;;;1.20;;
54787;SDS011;59598;48.112;16.280;2023-07-29T10:46:21;2.97;;;1.17;;
54787;SDS011;59598;48.112;16.280;2023-07-29T10:48:59;1.48;;;1.38;;
54787;SDS011;59598;48.112;16.280;2023-07-29T10:51:36;0.88;;;0.88;;
54787;SDS011;59598;48.112;16.280;2023-07-29T10:54:13;1.50;;;1.30;;
54787;SDS011;59598;48.112;16.280;2023-07-29T10:56:51;2.60;;;1.30;;
54787;SDS011;59598;48.112;16.280;2023-07-29T10:59:31;1.85;;;1.27;;
54787;SDS011;59598;48.112;16.280;2023-07-29T11:02:11;1.80;;;1.15;;
54787;SDS011;59598;48.112;16.280;2023-07-29T11:04:50;1.40;;;1.17;;
54787;SDS011;59598;48.112;16.280;2023-07-29T11:07:25;1.67;;;1.25;;
54787;SDS011;59598;48.112;16.280;2023-07-29T11:10:01;1.52;;;1.13;;
54787;SDS011;59598;48.112;16.280;2023-07-29T11:12:42;1.30;;;1.20;;
54787;SDS011;59598;48.112;16.280;2023-07-29T11:18:00;2.08;;;1.60;;
54787;SDS011;59598;48.112;16.280;2023-07-29T11:20:33;1.65;;;1.48;;
54787;SDS011;59598;48.112;16.280;2023-07-29T11:23:04;1.27;;;1.17;;
54787;SDS011;59598;48.112;16.280;2023-07-29T11:25:38;1.50;;;1.35;;
54787;SDS011;59598;48.112;16.280;2023-07-29T11:28:10;1.50;;;1.40;;
54787;SDS011;59598;48.112;16.280;2023-07-29T11:30:41;1.58;;;1.30;;
54787;SDS011;59598;48.112;16.280;2023-07-29T11:33:13;1.95;;;1.40;;
54787;SDS011;59598;48.112;16.280;2023-07-29T11:35:47;1.50;;;1.40;;
54787;SDS011;59598;48.112;16.280;2023-07-29T11:38:23;1.98;;;1.75;;
54787;SDS011;59598;48.112;16.280;2023-07-29T11:41:01;1.80;;;1.20;;
54787;SDS011;59598;48.112;16.280;2023-07-29T11:43:38;1.42;;;1.20;;
54787;SDS011;59598;48.112;16.280;2023-07-29T11:46:16;1.95;;;1.40;;
54787;SDS011;59598;48.112;16.280;2023-07-29T11:48:53;1.52;;;1.20;;
54787;SDS011;59598;48.112;16.280;2023-07-29T11:51:25;1.50;;;1.40;;
54787;SDS011;59598;48.112;16.280;2023-07-29T11:53:57;2.35;;;1.73;;
54787;SDS011;59598;48.112;16.280;2023-07-29T11:56:29;1.52;;;1.20;;
54787;SDS011;59598;48.112;16.280;2023-07-29T11:59:03;1.20;;;1.10;;
54787;SDS011;59598;48.112;16.280;2023-07-29T12:01:38;2.35;;;1.35;;
54787;SDS011;59598;48.112;16.280;2023-07-29T12:04:10;1.48;;;1.38;;
54787;SDS011;59598;48.112;16.280;2023-07-29T12:06:50;1.48;;;1.38;;
54787;SDS011;59598;48.112;16.280;2023-07-29T12:09:21;1.77;;;1.45;;
54787;SDS011;59598;48.112;16.280;2023-07-29T12:11:55;1.45;;;1.27;;
54787;SDS011;59598;48.112;16.280;2023-07-29T12:14:30;2.00;;;1.40;;
54787;SDS011;59598;48.112;16.280;2023-07-29T12:17:04;1.55;;;1.40;;
54787;SDS011;59598;48.112;16.280;2023-07-29T12:19:37;2.13;;;1.50;;
54787;SDS011;59598;48.112;16.280;2023-07-29T12:22:17;0.80;;;0.80;;
54787;SDS011;59598;48.112;16.280;2023-07-29T12:24:52;1.30;;;0.77;;
54787;SDS011;59598;48.112;16.280;2023-07-29T12:27:24;1.08;;;0.98;;
54787;SDS011;59598;48.112;16.280;2023-07-29T12:29:55;1.67;;;0.80;;
54787;SDS011;59598;48.112;16.280;2023-07-29T12:32:26;1.27;;;1.10;;
54787;SDS011;59598;48.112;16.280;2023-07-29T12:34:57;0.70;;;0.65;;
54787;SDS011;59598;48.112;16.280;2023-07-29T12:37:31;1.08;;;0.98;;
54787;SDS011;59598;48.112;16.280;2023-07-29T12:40:04;1.55;;;1.27;;
54787;SDS011;59598;48.112;16.280;2023-07-29T12:42:40;1.55;;;1.13;;
54787;SDS011;59598;48.112;16.280;2023-07-29T12:47:46;1.10;;;1.00;;
54787;SDS011;59598;48.112;16.280;2023-07-29T12:50:17;0.88;;;0.88;;
54787;SDS011;59598;48.112;16.280;2023-07-29T12:52:50;1.15;;;1.00;;
54787;SDS011;59598;48.112;16.280;2023-07-29T12:55:22;1.23;;;1.13;;
54787;SDS011;59598;48.112;16.280;2023-07-29T12:57:53;1.10;;;1.00;;
54787;SDS011;59598;48.112;16.280;2023-07-29T13:00:29;1.38;;;1.20;;
54787;SDS011;59598;48.112;16.280;2023-07-29T13:03:00;1.38;;;1.05;;
54787;SDS011;59598;48.112;16.280;2023-07-29T13:05:36;1.20;;;1.08;;
54787;SDS011;59598;48.112;16.280;2023-07-29T13:08:12;0.80;;;0.80;;
54787;SDS011;59598;48.112;16.280;2023-07-29T13:10:43;0.75;;;0.70;;
54787;SDS011;59598;48.112;16.280;2023-07-29T13:13:17;0.93;;;0.85;;
54787;SDS011;59598;48.112;16.280;2023-07-29T13:15:48;1.13;;;0.80;;
54787;SDS011;59598;48.112;16.280;2023-07-29T13:18:23;14.52;;;2.00;;
54787;SDS011;59598;48.112;16.280;2023-07-29T13:20:54;1.25;;;1.00;;
54787;SDS011;59598;48.112;16.280;2023-07-29T13:23:26;1.10;;;1.00;;
54787;SDS011;59598;48.112;16.280;2023-07-29T13:25:59;0.70;;;0.70;;
54787;SDS011;59598;48.112;16.280;2023-07-29T13:31:05;1.73;;;1.42;;
54787;SDS011;59598;48.112;16.280;2023-07-29T13:33:40;1.58;;;1.15;;
54787;SDS011;59598;48.112;16.280;2023-07-29T13:36:13;0.95;;;0.90;;
54787;SDS011;59598;48.112;16.280;2023-07-29T13:38:50;2.97;;;0.98;;
54787;SDS011;59598;48.112;16.280;2023-07-29T13:41:21;1.10;;;0.90;;
54787;SDS011;59598;48.112;16.280;2023-07-29T13:43:53;1.08;;;0.98;;
54787;SDS011;59598;48.112;16.280;2023-07-29T13:46:30;1.10;;;1.00;;
54787;SDS011;59598;48.112;16.280;2023-07-29T13:49:04;1.20;;;1.10;;
54787;SDS011;59598;48.112;16.280;2023-07-29T13:51:35;1.58;;;1.00;;
54787;SDS011;59598;48.112;16.280;2023-07-29T13:54:07;1.60;;;1.05;;
54787;SDS011;59598;48.112;16.280;2023-07-29T13:56:38;1.77;;;1.02;;
54787;SDS011;59598;48.112;16.280;2023-07-29T13:59:12;0.90;;;0.90;;
54787;SDS011;59598;48.112;16.280;2023-07-29T14:01:43;1.85;;;1.10;;
54787;SDS011;59598;48.112;16.280;2023-07-29T14:06:48;1.02;;;0.90;;
54787;SDS011;59598;48.112;16.280;2023-07-29T14:09:25;1.02;;;0.90;;
54787;SDS011;59598;48.112;16.280;2023-07-29T14:11:59;1.73;;;1.20;;
54787;SDS011;59598;48.112;16.280;2023-07-29T14:14:31;1.05;;;0.90;;
54787;SDS011;59598;48.112;16.280;2023-07-29T14:17:04;0.82;;;0.70;;
54787;SDS011;59598;48.112;16.280;2023-07-29T14:19:39;0.77;;;0.73;;
54787;SDS011;59598;48.112;16.280;2023-07-29T14:22:13;1.15;;;1.00;;
54787;SDS011;59598;48.112;16.280;2023-07-29T14:27:15;1.20;;;1.10;;
54787;SDS011;59598;48.112;16.280;2023-07-29T14:29:51;0.90;;;0.90;;
54787;SDS011;59598;48.112;16.280;2023-07-29T14:32:23;1.13;;;1.02;;
54787;SDS011;59598;48.112;16.280;2023-07-29T14:34:54;1.23;;;1.13;;
54787;SDS011;59598;48.112;16.280;2023-07-29T14:37:31;2.58;;;1.30;;
54787;SDS011;59598;48.112;16.280;2023-07-29T14:40:05;1.40;;;0.93;;
54787;SDS011;59598;48.112;16.280;2023-07-29T14:42:40;1.77;;;1.38;;
54787;SDS011;59598;48.112;16.280;2023-07-29T14:45:13;1.52;;;1.30;;
54787;SDS011;59598;48.112;16.280;2023-07-29T14:47:50;3.63;;;1.35;;
54787;SDS011;59598;48.112;16.280;2023-07-29T14:50:21;1.25;;;1.15;;
54787;SDS011;59598;48.112;16.280;2023-07-29T14:52:53;1.52;;;1.30;;
54787;SDS011;59598;48.112;16.280;2023-07-29T14:55:26;2.83;;;1.10;;
54787;SDS011;59598;48.112;16.280;2023-07-29T14:57:57;1.27;;;1.10;;
54787;SDS011;59598;48.112;16.280;2023-07-29T15:00:30;1.48;;;1.10;;
54787;SDS011;59598;48.112;16.280;2023-07-29T15:03:03;1.30;;;1.20;;
54787;SDS011;59598;48.112;16.280;2023-07-29T15:05:34;1.40;;;1.23;;
54787;SDS011;59598;48.112;16.280;2023-07-29T15:08:06;1.75;;;1.23;;
54787;SDS011;59598;48.112;16.280;2023-07-29T15:10:37;1.67;;;1.27;;
54787;SDS011;59598;48.112;16.280;2023-07-29T15:13:19;1.67;;;1.30;;
54787;SDS011;59598;48.112;16.280;2023-07-29T15:15:53;1.58;;;1.38;;
54787;SDS011;59598;48.112;16.280;2023-07-29T15:18:24;1.65;;;1.20;;
54787;SDS011;59598;48.112;16.280;2023-07-29T15:21:02;1.38;;;1.27;;
54787;SDS011;59598;48.112;16.280;2023-07-29T15:23:35;1.13;;;1.05;;
54787;SDS011;59598;48.112;16.280;2023-07-29T15:26:08;1.40;;;1.30;;
54787;SDS011;59598;48.112;16.280;2023-07-29T15:28:47;2.80;;;1.40;;
54787;SDS011;59598;48.112;16.280;2023-07-29T15:31:21;1.90;;;1.23;;
54787;SDS011;59598;48.112;16.280;2023-07-29T15:33:54;1.38;;;1.27;;
54787;SDS011;59598;48.112;16.280;2023-07-29T15:36:26;2.20;;;1.50;;
54787;SDS011;59598;48.112;16.280;2023-07-29T15:41:34;1.40;;;1.23;;
54787;SDS011;59598;48.112;16.280;2023-07-29T15:44:15;1.55;;;1.30;;
54787;SDS011;59598;48.112;16.280;2023-07-29T15:46:48;1.90;;;1.20;;
54787;SDS011;59598;48.112;16.280;2023-07-29T15:49:22;1.63;;;1.30;;